Time;durP1;ratioP1;P1;durP2;ratioP2;P2;SDS_P1;SDS_P2;PMS_P1;PMS_P2;Temp;Humidity;BMP_temperature;BMP_pressure;BME280_temperature;BME280_humidity;BME280_pressure;Samples;Min_cycle;Max_cycle;Signal;HPM_P1;HPM_P2
2021/08/21 00:02:09;;;;;;;8.18;3.22;;;;;;;15.26;100.00;94047.47;5073629;28;20201;-82
2021/08/21 00:04:37;;;;;;;6.45;3.28;;;;;;;15.18;100.00;94053.03;5072741;28;20495;-82
2021/08/21 00:07:04;;;;;;;5.70;3.25;;;;;;;15.09;100.00;94052.53;5073405;28;20290;-81
2021/08/21 00:09:31;;;;;;;5.53;3.25;;;;;;;15.03;100.00;94050.78;5073273;28;20657;-81
2021/08/21 00:11:57;;;;;;;6.25;3.50;;;;;;;15.01;100.00;94052.84;5073185;28;20653;-81
2021/08/21 00:14:23;;;;;;;5.53;2.88;;;;;;;14.96;100.00;94050.06;5073389;28;20195;-80
2021/08/21 00:16:51;;;;;;;4.55;2.90;;;;;;;14.88;100.00;94053.00;5073284;28;20202;-80
2021/08/21 00:19:18;;;;;;;9.45;3.25;;;;;;;14.83;100.00;94053.66;5073270;28;20206;-80
2021/08/21 00:21:45;;;;;;;6.22;3.15;;;;;;;14.96;100.00;94050.06;5073195;28;20569;-81
2021/08/21 00:24:11;;;;;;;4.95;3.17;;;;;;;14.96;100.00;94055.34;5072996;28;20306;-81
2021/08/21 00:26:38;;;;;;;7.88;3.50;;;;;;;14.90;100.00;94051.75;5073257;28;20199;-81
2021/08/21 00:29:04;;;;;;;6.97;3.35;;;;;;;14.70;100.00;94046.72;5073129;28;20205;-81
2021/08/21 00:31:31;;;;;;;5.68;3.38;;;;;;;14.70;100.00;94045.91;5073340;28;20199;-81
2021/08/21 00:33:59;;;;;;;5.70;3.35;;;;;;;14.73;100.00;94045.47;5073134;28;20232;-81
2021/08/21 00:36:26;;;;;;;6.05;3.50;;;;;;;14.80;100.00;94039.13;5072995;28;20199;-81
2021/08/21 00:38:53;;;;;;;7.70;3.63;;;;;;;14.84;100.00;94036.03;5071635;28;20209;-81
2021/08/21 00:41:19;;;;;;;8.10;3.15;;;;;;;14.85;100.00;94035.03;5072635;28;20198;-80
2021/08/21 00:43:46;;;;;;;9.57;3.45;;;;;;;14.69;100.00;94034.59;5073012;28;20198;-81
2021/08/21 00:46:12;;;;;;;8.75;3.55;;;;;;;14.57;100.00;94036.31;5072556;28;20587;-79
2021/08/21 00:48:39;;;;;;;5.93;3.50;;;;;;;14.74;100.00;94032.13;5072797;28;20206;-81
2021/08/21 00:51:07;;;;;;;6.93;3.70;;;;;;;14.76;100.00;94035.31;5071568;28;20447;-81
2021/08/21 00:53:34;;;;;;;5.10;3.20;;;;;;;14.67;100.00;94036.66;5072685;28;20203;-81
2021/08/21 00:56:01;;;;;;;4.50;3.05;;;;;;;14.66;100.00;94029.78;5073824;28;20206;-81
2021/08/21 00:58:28;;;;;;;6.68;3.60;;;;;;;14.73;100.00;94034.97;5079517;28;20202;-81
2021/08/21 01:00:56;;;;;;;5.07;3.10;;;;;;;14.64;100.00;94031.84;5079466;28;20199;-82
2021/08/21 01:03:23;;;;;;;5.68;3.22;;;;;;;14.54;100.00;94032.31;5079481;28;20657;-80
2021/08/21 01:05:49;;;;;;;4.60;3.20;;;;;;;14.73;100.00;94025.25;5079277;28;20229;-81
2021/08/21 01:08:17;;;;;;;5.20;2.90;;;;;;;14.70;100.00;94030.94;5079414;28;20565;-81
2021/08/21 01:10:44;;;;;;;6.10;3.55;;;;;;;14.72;100.00;94036.81;5079382;28;20198;-81
2021/08/21 01:13:10;;;;;;;7.20;3.40;;;;;;;14.77;100.00;94028.22;5079221;28;20206;-81
2021/08/21 01:15:37;;;;;;;6.05;3.60;;;;;;;14.70;100.00;94030.94;5079435;28;20201;-80
2021/08/21 01:18:04;;;;;;;8.00;3.72;;;;;;;14.68;100.00;94025.09;5079205;28;20194;-81
2021/08/21 01:20:32;;;;;;;8.85;3.35;;;;;;;14.69;100.00;94024.09;5079239;28;20223;-80
2021/08/21 01:23:00;;;;;;;6.68;3.33;;;;;;;14.62;100.00;94023.34;5079312;28;20203;-80
2021/08/21 01:25:29;;;;;;;4.72;3.40;;;;;;;14.48;100.00;94025.28;5079279;28;20233;-81
2021/08/21 01:27:57;;;;;;;5.72;3.47;;;;;;;14.54;100.00;94023.63;5079289;28;20199;-81
2021/08/21 01:30:24;;;;;;;7.65;3.70;;;;;;;14.61;100.00;94027.81;5079232;28;20203;-80
2021/08/21 01:32:50;;;;;;;6.43;3.80;;;;;;;14.77;100.00;94036.94;5079054;28;20198;-81
2021/08/21 01:35:17;;;;;;;5.63;3.50;;;;;;;14.74;100.00;94026.88;5079197;28;20611;-79
2021/08/21 01:37:44;;;;;;;6.68;2.95;;;;;;;14.50;100.00;94028.50;5079203;28;20195;-81
2021/08/21 01:40:12;;;;;;;7.25;3.40;;;;;;;14.24;100.00;94021.72;5079195;28;20198;-80
2021/08/21 01:42:40;;;;;;;7.88;3.75;;;;;;;14.20;100.00;94023.94;5077582;28;20206;-81
2021/08/21 01:45:12;;;;;;;9.73;3.72;;;;;;;14.25;100.00;94020.66;5078674;28;20652;-81
2021/08/21 01:47:39;;;;;;;8.48;3.65;;;;;;;14.22;100.00;94021.09;5078139;28;20195;-81
2021/08/21 01:50:09;;;;;;;9.57;3.50;;;;;;;14.35;100.00;94018.34;5079146;28;20458;-80
2021/08/21 01:52:36;;;;;;;5.80;3.20;;;;;;;14.35;100.00;94017.53;5079055;28;20209;-79
2021/08/21 01:55:03;;;;;;;5.72;3.50;;;;;;;14.23;100.00;94013.00;5078999;28;20206;-80
2021/08/21 01:57:30;;;;;;;6.50;3.78;;;;;;;14.18;100.00;94017.31;5078101;28;20203;-79
2021/08/21 01:59:57;;;;;;;6.07;3.45;;;;;;;14.14;100.00;94013.50;5078805;28;20203;-78
2021/08/21 02:02:25;;;;;;;6.35;3.20;;;;;;;13.98;100.00;94010.41;5079187;28;20211;-80
2021/08/21 02:04:52;;;;;;;6.50;3.67;;;;;;;13.90;100.00;94015.13;5078624;28;20626;-80
2021/08/21 02:07:18;;;;;;;11.70;3.70;;;;;;;13.94;100.00;94011.88;5078377;28;20202;-80
2021/08/21 02:09:45;;;;;;;6.07;3.78;;;;;;;13.81;100.00;94017.22;5074564;28;20202;-80
2021/08/21 02:12:12;;;;;;;5.05;3.28;;;;;;;13.76;100.00;94019.69;5075556;28;20198;-80
2021/08/21 02:14:38;;;;;;;8.48;3.70;;;;;;;13.70;100.00;94010.84;5075235;28;20203;-81
2021/08/21 02:17:05;;;;;;;5.60;3.53;;;;;;;13.71;100.00;94012.47;5075663;28;20205;-80
2021/08/21 02:19:33;;;;;;;7.55;3.60;;;;;;;13.77;100.00;94016.03;5075207;28;20434;-79
2021/08/21 02:22:02;;;;;;;5.13;3.13;;;;;;;13.68;100.00;94010.25;5075312;28;20198;-79
2021/08/21 02:24:30;;;;;;;7.78;3.83;;;;;;;13.59;100.00;94009.72;5075400;28;20198;-80
2021/08/21 02:27:00;;;;;;;6.47;3.67;;;;;;;13.54;100.00;94008.72;5075306;28;20222;-80
2021/08/21 02:29:27;;;;;;;7.63;3.72;;;;;;;13.39;100.00;94011.66;5075191;28;20206;-81
2021/08/21 02:31:55;;;;;;;6.95;3.50;;;;;;;13.26;100.00;94002.84;5075389;28;20202;-80
2021/08/21 02:34:22;;;;;;;11.83;3.90;;;;;;;13.12;100.00;94004.75;5075210;28;20248;-80
2021/08/21 02:36:50;;;;;;;6.17;3.70;;;;;;;13.01;100.00;94002.00;5075155;28;20715;-80
2021/08/21 02:39:17;;;;;;;6.03;3.63;;;;;;;12.91;100.00;94011.09;5075061;28;20198;-80
2021/08/21 02:41:43;;;;;;;5.60;3.58;;;;;;;12.90;100.00;94008.69;5074976;28;20213;-80
2021/08/21 02:44:10;;;;;;;6.53;3.53;;;;;;;12.80;100.00;94006.50;5075122;28;20199;-80
2021/08/21 02:46:36;;;;;;;4.50;3.17;;;;;;;12.62;100.00;94014.22;5074766;28;20239;-80
2021/08/21 02:49:03;;;;;;;6.73;3.80;;;;;;;12.50;100.00;94011.44;5074513;28;20209;-80
2021/08/21 02:51:29;;;;;;;6.07;3.77;;;;;;;12.39;100.00;94007.66;5074864;28;20225;-80
2021/08/21 02:53:57;;;;;;;7.83;3.97;;;;;;;12.35;100.00;94009.06;5074752;28;20199;-81
2021/08/21 02:56:23;;;;;;;9.13;3.90;;;;;;;12.37;100.00;94007.88;5074717;28;20553;-79
2021/08/21 02:58:50;;;;;;;9.70;4.20;;;;;;;12.41;100.00;94003.03;5074879;28;20210;-80
2021/08/21 03:01:16;;;;;;;6.23;3.80;;;;;;;12.43;100.00;94001.00;5074789;28;20207;-80
2021/08/21 03:03:43;;;;;;;6.27;3.63;;;;;;;12.48;100.00;94009.03;5074686;28;20202;-80
2021/08/21 03:06:09;;;;;;;6.17;3.73;;;;;;;12.54;100.00;94002.97;5074641;28;20317;-81
2021/08/21 03:08:36;;;;;;;11.83;4.40;;;;;;;12.63;100.00;94000.13;5074559;28;20538;-79
2021/08/21 03:11:03;;;;;;;7.90;4.60;;;;;;;12.67;100.00;94001.31;5074437;28;20199;-80
2021/08/21 03:13:30;;;;;;;10.13;4.00;;;;;;;12.82;100.00;93996.59;5074572;28;20195;-79
2021/08/21 03:15:56;;;;;;;6.57;3.70;;;;;;;13.06;100.00;93999.53;5074457;28;20285;-79
2021/08/21 03:18:23;;;;;;;5.77;3.80;;;;;;;13.21;100.00;94000.06;5074301;28;20202;-79
2021/08/21 03:20:49;;;;;;;10.27;4.33;;;;;;;13.43;100.00;93997.91;5074009;28;20202;-80
2021/08/21 03:23:16;;;;;;;6.93;3.83;;;;;;;13.55;100.00;94003.28;5074125;28;20203;-80
2021/08/21 03:25:42;;;;;;;7.93;3.67;;;;;;;13.44;100.00;93998.72;5074193;28;20234;-80
2021/08/21 03:28:10;;;;;;;6.43;3.80;;;;;;;13.50;100.00;93990.00;5074172;28;20199;-80
2021/08/21 03:30:36;;;;;;;6.63;3.70;;;;;;;13.61;100.00;93994.56;5074180;28;20202;-80
2021/08/21 03:33:06;;;;;;;6.97;3.72;;;;;;;13.46;100.00;93996.69;5074180;28;20210;-81
2021/08/21 03:35:33;;;;;;;6.93;4.10;;;;;;;13.58;100.00;94000.22;5074111;28;20207;-78
2021/08/21 03:37:59;;;;;;;6.13;3.45;;;;;;;13.65;100.00;93993.09;5073934;28;20225;-81
2021/08/21 03:40:26;;;;;;;7.18;3.95;;;;;;;13.80;100.00;93997.25;5073738;28;20676;-77
2021/08/21 03:42:52;;;;;;;7.18;4.03;;;;;;;13.79;100.00;93998.25;5073896;28;20210;-78
2021/08/21 03:45:20;;;;;;;9.38;3.72;;;;;;;13.66;100.00;93996.56;5073594;28;20235;-81
2021/08/21 03:47:47;;;;;;;6.20;3.72;;;;;;;13.63;100.00;93996.97;5073831;28;20300;-79
2021/08/21 03:50:14;;;;;;;6.70;3.80;;;;;;;13.52;100.00;93998.44;5073672;28;20235;-80
2021/08/21 03:52:40;;;;;;;9.73;4.00;;;;;;;13.31;100.00;94002.22;5073556;28;20210;-81
2021/08/21 03:55:07;;;;;;;8.80;3.37;;;;;;;13.14;100.00;94004.53;5073799;28;20195;-80
2021/08/21 03:57:34;;;;;;;10.67;3.90;;;;;;;13.20;100.00;94006.28;5073712;28;20199;-80
2021/08/21 04:00:00;;;;;;;9.83;3.60;;;;;;;13.12;100.00;93999.50;5073659;28;20214;-79
2021/08/21 04:02:28;;;;;;;8.80;4.00;;;;;;;13.32;100.00;93994.16;5073656;28;20202;-80
2021/08/21 04:04:55;;;;;;;7.23;3.77;;;;;;;13.29;100.00;93991.94;5073276;28;20654;-79
2021/08/21 04:07:21;;;;;;;6.32;3.55;;;;;;;13.39;100.00;93991.50;5073542;28;20226;-81
2021/08/21 04:09:47;;;;;;;7.50;4.00;;;;;;;13.32;100.00;93996.78;5073463;28;20199;-80
2021/08/21 04:12:18;;;;;;;7.10;3.70;;;;;;;13.41;100.00;94004.41;5073474;28;20566;-80
2021/08/21 04:14:44;;;;;;;7.00;3.70;;;;;;;13.55;100.00;94002.47;5073295;28;20248;-80
2021/08/21 04:17:11;;;;;;;8.98;4.22;;;;;;;13.59;100.00;93998.41;5073218;28;20198;-79
2021/08/21 04:19:39;;;;;;;7.00;3.55;;;;;;;13.75;100.00;93997.09;5071698;28;20203;-81
2021/08/21 04:22:05;;;;;;;6.43;3.50;;;;;;;13.79;100.00;94000.88;5073482;28;20206;-81
2021/08/21 04:24:32;;;;;;;8.93;3.95;;;;;;;13.77;100.00;94001.13;5073277;28;20195;-80
2021/08/21 04:26:58;;;;;;;6.07;3.53;;;;;;;13.92;100.00;94006.00;5073141;28;20237;-81
2021/08/21 04:29:25;;;;;;;5.68;3.38;;;;;;;13.94;100.00;94006.63;5073090;28;20210;-78
2021/08/21 04:31:51;;;;;;;6.45;3.25;;;;;;;13.93;100.00;94007.63;5072380;28;20646;-80
2021/08/21 04:34:17;;;;;;;6.88;3.22;;;;;;;13.87;100.00;94011.09;5073027;28;20225;-79
2021/08/21 04:36:45;;;;;;;6.70;3.90;;;;;;;13.98;100.00;94007.78;5072911;28;20668;-80
2021/08/21 04:39:12;;;;;;;6.10;3.65;;;;;;;13.90;100.00;94010.69;5073048;28;20203;-80
2021/08/21 04:41:38;;;;;;;6.95;3.50;;;;;;;13.83;100.00;94010.72;5073116;28;20202;-79
2021/08/21 04:44:05;;;;;;;6.72;3.65;;;;;;;13.76;100.00;94010.00;5072826;28;20206;-80
2021/08/21 04:46:33;;;;;;;7.82;4.22;;;;;;;13.79;100.00;94009.56;5072064;28;20230;-80
2021/08/21 04:48:59;;;;;;;7.20;4.00;;;;;;;13.76;100.00;94014.44;5072779;28;20248;-81
2021/08/21 04:51:25;;;;;;;6.05;3.53;;;;;;;13.64;100.00;94015.13;5072945;28;20207;-79
2021/08/21 04:53:53;;;;;;;5.70;3.57;;;;;;;13.65;100.00;94016.72;5072878;28;20563;-80
2021/08/21 04:56:20;;;;;;;8.10;3.92;;;;;;;13.71;100.00;94022.94;5072909;28;20199;-80
2021/08/21 04:58:46;;;;;;;5.50;3.75;;;;;;;13.60;100.00;94023.63;5072948;28;20198;-81
2021/08/21 05:01:13;;;;;;;4.72;3.00;;;;;;;13.49;100.00;94012.81;5072620;28;20250;-81
2021/08/21 05:03:39;;;;;;;6.15;3.45;;;;;;;13.50;100.00;94021.47;5072637;28;20616;-81
2021/08/21 05:06:05;;;;;;;9.57;3.95;;;;;;;13.48;100.00;94023.50;5072796;28;20230;-81
2021/08/21 05:08:32;;;;;;;7.97;3.53;;;;;;;13.48;100.00;94024.31;5072710;28;20653;-81
2021/08/21 05:11:00;;;;;;;6.40;3.60;;;;;;;13.51;100.00;94020.47;5072608;28;20202;-80
2021/08/21 05:13:26;;;;;;;5.60;3.53;;;;;;;13.56;100.00;94014.59;5072618;28;20199;-80
2021/08/21 05:15:52;;;;;;;5.90;3.15;;;;;;;13.52;100.00;94016.81;5072672;28;20205;-80
2021/08/21 05:18:25;;;;;;;5.78;3.38;;;;;;;13.49;100.00;94019.88;5072820;28;20203;-80
2021/08/21 05:20:53;;;;;;;6.60;3.83;;;;;;;13.51;100.00;94016.03;5071789;28;20491;-82
2021/08/21 05:23:19;;;;;;;5.78;3.30;;;;;;;13.49;100.00;94023.31;5072553;28;20665;-82
2021/08/21 05:25:48;;;;;;;5.18;2.88;;;;;;;13.51;100.00;94025.72;5072542;28;20232;-81
2021/08/21 05:28:17;;;;;;;5.05;3.17;;;;;;;13.52;100.00;94024.69;5072374;28;20206;-81
2021/08/21 05:30:44;;;;;;;6.65;3.80;;;;;;;13.55;100.00;94028.72;5072677;28;20199;-80
2021/08/21 05:33:12;;;;;;;7.28;3.80;;;;;;;13.60;100.00;94021.81;5072488;28;20202;-81
2021/08/21 05:35:39;;;;;;;7.35;3.85;;;;;;;13.63;100.00;94018.75;5072329;28;20206;-80
2021/08/21 05:38:06;;;;;;;6.55;3.47;;;;;;;13.70;100.00;94021.34;5072402;28;20203;-80
2021/08/21 05:40:33;;;;;;;8.80;3.53;;;;;;;13.77;100.00;94026.53;5072358;28;20198;-80
2021/08/21 05:43:00;;;;;;;6.38;3.30;;;;;;;13.77;100.00;94029.16;5073817;28;20206;-80
2021/08/21 05:45:28;;;;;;;6.00;4.10;;;;;;;13.83;100.00;94023.84;5076033;28;20242;-80
2021/08/21 05:47:55;;;;;;;7.75;4.05;;;;;;;13.93;100.00;94026.00;5076065;28;20234;-80
2021/08/21 05:50:23;;;;;;;6.55;3.80;;;;;;;14.06;100.00;94028.50;5075913;28;20602;-81
2021/08/21 05:52:49;;;;;;;9.13;3.63;;;;;;;14.11;100.00;94025.25;5075883;28;20226;-80
2021/08/21 05:55:16;;;;;;;8.80;4.13;;;;;;;14.24;100.00;94032.22;5075802;28;20562;-80
2021/08/21 05:57:42;;;;;;;8.43;3.85;;;;;;;14.28;100.00;94033.38;5076141;28;20207;-80
2021/08/21 06:00:13;;;;;;;6.95;3.75;;;;;;;14.37;100.00;94029.44;5075916;28;20206;-80
2021/08/21 06:02:41;;;;;;;5.97;3.80;;;;;;;14.56;100.00;94037.34;5075906;28;20206;-79
2021/08/21 06:05:10;;;;;;;7.10;3.95;;;;;;;14.71;100.00;94037.81;5075783;28;20277;-80
2021/08/21 06:07:39;;;;;;;6.28;4.10;;;;;;;14.83;100.00;94031.81;5075641;28;20231;-80
2021/08/21 06:10:07;;;;;;;9.55;3.92;;;;;;;14.97;100.00;94036.72;5075552;28;20209;-80
2021/08/21 06:12:34;;;;;;;6.07;3.78;;;;;;;15.04;100.00;94041.88;5075562;28;20684;-81
2021/08/21 06:15:01;;;;;;;6.10;3.45;;;;;;;15.21;100.00;94036.03;5075470;28;20206;-81
2021/08/21 06:17:27;;;;;;;7.38;3.78;;;;;;;15.28;100.00;94037.53;5075641;28;20199;-81
2021/08/21 06:19:56;;;;;;;9.45;4.85;;;;;;;15.43;100.00;94037.13;5075491;28;20199;-81
2021/08/21 06:22:23;;;;;;;7.68;3.80;;;;;;;15.46;100.00;94036.66;5075424;28;20221;-81
2021/08/21 06:24:49;;;;;;;6.28;3.75;;;;;;;15.51;100.00;94043.91;5075341;28;20701;-80
2021/08/21 06:27:16;;;;;;;5.38;3.40;;;;;;;15.58;100.00;94041.19;5075244;28;20234;-78
2021/08/21 06:29:45;;;;;;;7.72;3.67;;;;;;;15.65;100.00;94045.28;5075190;28;20727;-80
2021/08/21 06:32:12;;;;;;;7.55;3.85;;;;;;;15.72;100.00;94045.19;5075337;28;20195;-81
2021/08/21 06:34:38;;;;;;;6.18;3.58;;;;;;;15.82;100.00;94037.59;5075207;28;20763;-80
2021/08/21 06:37:06;;;;;;;7.25;4.03;;;;;;;15.83;100.00;94044.47;5074945;28;20573;-80
2021/08/21 06:39:33;;;;;;;7.30;3.80;;;;;;;15.90;100.00;94044.34;5075233;28;20199;-81
2021/08/21 06:42:00;;;;;;;6.55;3.88;;;;;;;16.03;100.00;94049.41;5074486;28;20210;-81
2021/08/21 06:44:27;;;;;;;10.00;4.05;;;;;;;16.23;100.00;94053.56;5075087;28;20203;-81
2021/08/21 06:46:53;;;;;;;6.25;3.78;;;;;;;16.45;100.00;94057.25;5074794;28;20341;-80
2021/08/21 06:49:26;;;;;;;7.30;3.88;;;;;;;16.59;100.00;94049.09;5074641;28;20470;-80
2021/08/21 06:51:52;;;;;;;4.85;3.65;;;;;;;16.71;100.00;94052.50;5074683;28;20217;-80
2021/08/21 06:54:21;;;;;;;8.00;3.78;;;;;;;16.86;100.00;94052.06;5074247;28;20210;-80
2021/08/21 06:56:48;;;;;;;4.97;3.22;;;;;;;16.95;100.00;94058.59;5074756;28;20538;-81
2021/08/21 06:59:15;;;;;;;5.93;3.45;;;;;;;17.15;100.00;94054.75;5074804;28;20203;-81
2021/08/21 07:01:41;;;;;;;6.82;3.30;;;;;;;17.43;100.00;94061.06;5074564;28;20201;-81
2021/08/21 07:04:08;;;;;;;8.00;3.17;;;;;;;17.71;100.00;94058.41;5074559;28;20198;-81
2021/08/21 07:06:34;;;;;;;4.13;2.80;;;;;;;18.00;100.00;94060.25;5074389;28;20202;-80
2021/08/21 07:09:01;;;;;;;4.38;3.08;;;;;;;18.08;100.00;94062.50;5074611;28;20237;-81
2021/08/21 07:11:29;;;;;;;5.07;2.90;;;;;;;18.30;100.00;94066.03;5074545;28;20195;-81
2021/08/21 07:13:55;;;;;;;5.78;3.13;;;;;;;18.30;100.00;94062.56;5074467;28;20202;-81
2021/08/21 07:16:22;;;;;;;6.55;3.47;;;;;;;18.38;100.00;94053.44;5074616;28;20199;-81
2021/08/21 07:18:49;;;;;;;4.82;3.13;;;;;;;18.47;100.00;94058.09;5074159;28;20293;-80
2021/08/21 07:21:16;;;;;;;5.30;3.10;;;;;;;18.69;100.00;94057.31;5074320;28;20210;-80
2021/08/21 07:23:43;;;;;;;6.28;3.35;;;;;;;18.90;100.00;94053.16;5074319;28;20313;-80
2021/08/21 07:26:09;;;;;;;5.38;3.45;;;;;;;19.10;99.42;94057.88;5073832;28;20195;-81
2021/08/21 07:28:37;;;;;;;8.02;3.80;;;;;;;19.21;96.53;94053.50;5073824;28;20787;-80
2021/08/21 07:31:04;;;;;;;8.32;3.88;;;;;;;19.33;94.69;94051.50;5077868;28;20199;-80
2021/08/21 07:33:32;;;;;;;11.73;3.80;;;;;;;19.47;94.05;94054.59;5076726;28;20201;-79
2021/08/21 07:35:59;;;;;;;5.50;3.38;;;;;;;19.63;93.48;94049.44;5074663;28;20198;-80
2021/08/21 07:38:27;;;;;;;6.07;4.05;;;;;;;19.65;91.68;94048.16;5073938;28;20245;-81
2021/08/21 07:40:54;;;;;;;9.38;3.88;;;;;;;19.86;92.62;94046.50;5073925;28;20225;-83
2021/08/21 07:43:21;;;;;;;9.10;3.80;;;;;;;19.94;93.75;94040.75;5074496;28;20293;-84
2021/08/21 07:45:51;;;;;;;6.50;3.97;;;;;;;20.06;92.40;94053.84;5074523;28;20222;-83
2021/08/21 07:48:18;;;;;;;5.88;3.85;;;;;;;20.18;92.81;94056.31;5074940;28;20230;-84
2021/08/21 07:50:45;;;;;;;6.32;3.92;;;;;;;20.36;91.86;94051.69;5076195;28;20203;-82
2021/08/21 07:53:12;;;;;;;9.48;4.70;;;;;;;20.46;90.71;94054.41;5075399;28;20566;-83
2021/08/21 07:55:39;;;;;;;11.32;5.32;;;;;;;20.45;90.94;94053.63;5074485;28;20665;-83
2021/08/21 07:58:06;;;;;;;8.80;4.40;;;;;;;20.56;89.46;94057.13;5071765;28;20282;-85
2021/08/21 08:00:33;;;;;;;11.15;6.50;;;;;;;20.57;87.51;94047.31;5075001;28;20195;-84
2021/08/21 08:03:01;;;;;;;10.93;6.32;;;;;;;20.43;87.17;94053.06;5074051;28;20199;-82
2021/08/21 08:05:28;;;;;;;14.10;5.28;;;;;;;20.57;87.85;94058.72;5074885;28;20195;-84
2021/08/21 08:07:54;;;;;;;12.35;5.55;;;;;;;20.54;87.47;94059.25;5073451;28;20222;-84
2021/08/21 08:10:21;;;;;;;9.38;5.30;;;;;;;20.64;86.82;94059.34;5073445;28;20195;-82
2021/08/21 08:12:48;;;;;;;7.50;4.40;;;;;;;20.80;87.18;94062.88;5073120;28;20207;-83
2021/08/21 08:15:15;;;;;;;10.07;4.80;;;;;;;20.97;85.34;94060.06;5073530;28;20202;-83
2021/08/21 08:17:41;;;;;;;10.13;4.95;;;;;;;21.10;87.25;94057.97;5072302;28;20441;-82
2021/08/21 08:20:10;;;;;;;12.23;4.68;;;;;;;21.14;87.11;94059.06;5073445;28;20213;-83
2021/08/21 08:22:37;;;;;;;8.13;4.82;;;;;;;21.17;85.46;94062.00;5073295;28;20213;-83
2021/08/21 08:25:04;;;;;;;10.77;5.10;;;;;;;21.53;90.95;94059.50;5073298;28;20202;-84
2021/08/21 08:27:30;;;;;;;12.43;4.80;;;;;;;21.87;87.87;94063.56;5073213;28;20226;-83
2021/08/21 08:29:57;;;;;;;8.48;5.68;;;;;;;21.83;87.63;94063.25;5073242;28;20199;-82
2021/08/21 08:32:23;;;;;;;7.85;4.80;;;;;;;21.85;84.94;94063.00;5073334;28;20202;-83
2021/08/21 08:34:50;;;;;;;10.43;5.25;;;;;;;22.01;83.96;94061.97;5073391;28;20221;-83
2021/08/21 08:37:17;;;;;;;7.93;4.70;;;;;;;22.06;84.43;94061.97;5072745;28;20202;-83
2021/08/21 08:39:44;;;;;;;10.68;4.93;;;;;;;22.21;87.14;94063.03;5073008;28;20201;-84
2021/08/21 08:42:11;;;;;;;9.02;5.03;;;;;;;22.39;83.44;94057.22;5073552;28;20277;-83
2021/08/21 08:44:46;;;;;;;8.85;4.85;;;;;;;22.47;84.74;94064.66;5074024;28;20340;-84
2021/08/21 08:47:13;;;;;;;8.25;4.93;;;;;;;22.63;82.52;94057.47;5074004;28;20234;-81
2021/08/21 08:49:40;;;;;;;11.35;4.85;;;;;;;22.14;81.20;94065.97;5072800;28;20199;-83
2021/08/21 08:52:07;;;;;;;9.38;4.97;;;;;;;22.00;82.89;94063.03;5072883;28;20202;-83
2021/08/21 08:54:35;;;;;;;9.27;4.88;;;;;;;22.11;83.15;94055.84;5072636;28;20198;-82
2021/08/21 08:57:02;;;;;;;11.32;5.20;;;;;;;22.34;87.72;94054.56;5072786;28;20202;-83
2021/08/21 08:59:30;;;;;;;10.05;5.28;;;;;;;22.32;82.63;94059.34;5073606;28;20202;-83
2021/08/21 09:01:56;;;;;;;6.93;4.43;;;;;;;22.48;82.66;94055.63;5073819;28;20206;-82
2021/08/21 09:04:24;;;;;;;8.90;4.53;;;;;;;22.45;80.99;94058.81;5073338;28;20199;-83
2021/08/21 09:06:51;;;;;;;7.68;4.85;;;;;;;22.36;80.52;94060.41;5073504;28;20286;-82
2021/08/21 09:09:20;;;;;;;10.30;4.78;;;;;;;22.47;81.24;94053.22;5073381;28;20253;-83
2021/08/21 09:11:51;;;;;;;8.23;4.93;;;;;;;22.53;78.81;94063.59;5072870;28;20201;-82
2021/08/21 09:14:21;;;;;;;12.23;5.47;;;;;;;22.47;81.08;94064.66;5073131;28;20203;-84
2021/08/21 09:16:48;;;;;;;6.55;4.53;;;;;;;22.43;76.94;94070.78;5074817;28;20198;-82
2021/08/21 09:19:23;;;;;;;6.72;4.28;;;;;;;22.65;76.39;94062.50;5077688;28;20190;-83
2021/08/21 09:21:59;;;;;;;7.13;4.57;;;;;;;22.85;78.33;94059.03;5076748;28;20216;-82
2021/08/21 09:24:26;;;;;;;7.72;4.70;;;;;;;22.83;77.31;94059.28;5077017;28;20194;-83
2021/08/21 09:26:53;;;;;;;7.63;4.70;;;;;;;22.99;82.84;94061.91;5077459;28;20213;-82
2021/08/21 09:29:27;;;;;;;8.90;4.60;;;;;;;22.87;75.76;94054.22;5077091;28;20234;-83
2021/08/21 09:32:08;;;;;;;7.05;4.55;;;;;;;22.87;86.12;94055.00;5077320;28;20527;-85
2021/08/21 09:34:35;;;;;;;8.98;4.30;;;;;;;23.00;83.64;94058.16;5076769;28;20202;-82
2021/08/21 09:37:02;;;;;;;6.78;4.43;;;;;;;22.99;80.18;94057.38;5076482;28;20213;-83
2021/08/21 09:39:35;;;;;;;9.13;5.05;;;;;;;23.17;82.55;94055.22;5076346;28;20222;-81
2021/08/21 09:42:05;;;;;;;7.47;4.43;;;;;;;23.24;78.89;94058.38;5076306;28;20239;-83
2021/08/21 09:44:34;;;;;;;10.13;5.13;;;;;;;23.34;80.40;94057.56;5076554;28;20214;-82
2021/08/21 09:47:14;;;;;;;7.90;4.35;;;;;;;23.42;79.21;94062.31;5076092;28;20230;-83
2021/08/21 09:49:42;;;;;;;7.03;4.60;;;;;;;23.43;78.83;94067.38;5076048;28;20202;-82
2021/08/21 09:52:11;;;;;;;7.88;4.28;;;;;;;23.36;81.59;94055.41;5076271;28;20240;-80
2021/08/21 09:54:38;;;;;;;8.27;4.45;;;;;;;23.34;80.88;94060.22;5076086;28;20207;-83
2021/08/21 09:57:07;;;;;;;6.22;4.50;;;;;;;23.64;80.06;94054.72;5076687;28;20209;-84
2021/08/21 09:59:36;;;;;;;8.65;4.53;;;;;;;23.71;79.75;94053.63;5076920;28;20205;-84
2021/08/21 10:02:07;;;;;;;6.63;4.53;;;;;;;23.59;80.12;94049.44;5077013;28;20238;-84
2021/08/21 10:04:35;;;;;;;11.45;4.95;;;;;;;23.56;75.22;94059.84;5076831;28;20202;-83
2021/08/21 10:07:04;;;;;;;9.95;4.68;;;;;;;23.38;74.46;94053.25;5076591;28;20198;-82
2021/08/21 10:09:31;;;;;;;7.45;4.68;;;;;;;23.28;75.58;94049.59;5075621;28;20230;-83
2021/08/21 10:11:58;;;;;;;8.45;4.85;;;;;;;23.33;76.67;94051.44;5075805;28;20225;-82
2021/08/21 10:14:26;;;;;;;6.93;4.65;;;;;;;23.55;75.94;94052.91;5075548;28;20202;-81
2021/08/21 10:16:53;;;;;;;7.53;4.68;;;;;;;23.79;75.58;94047.72;5072687;28;20198;-81
2021/08/21 10:19:22;;;;;;;6.80;4.40;;;;;;;24.16;73.16;94049.09;5065744;28;20213;-81
2021/08/21 10:21:51;;;;;;;8.65;4.22;;;;;;;24.08;78.33;94049.69;5075408;28;20216;-82
2021/08/21 10:24:26;;;;;;;8.98;4.35;;;;;;;24.24;73.83;94056.50;5075138;28;20205;-81
2021/08/21 10:26:56;;;;;;;7.55;4.47;;;;;;;23.90;74.15;94048.47;5075145;28;20675;-82
2021/08/21 10:29:23;;;;;;;6.05;3.80;;;;;;;24.12;72.96;94048.06;5073575;28;20588;-82
2021/08/21 10:31:51;;;;;;;9.60;4.38;;;;;;;24.29;70.51;94051.13;5073219;28;20195;-81
2021/08/21 10:34:17;;;;;;;6.50;4.03;;;;;;;24.08;76.15;94039.81;5075051;28;20201;-81
2021/08/21 10:36:50;;;;;;;7.60;3.75;;;;;;;24.62;75.48;94043.38;5075033;28;20256;-81
2021/08/21 10:39:23;;;;;;;6.30;4.25;;;;;;;24.61;72.96;94047.13;5075072;28;20206;-82
2021/08/21 10:41:50;;;;;;;8.07;4.10;;;;;;;25.00;68.56;94054.22;5075166;28;20199;-81
2021/08/21 10:44:46;;;;;;;8.10;4.50;;;;;;;24.82;68.66;94044.28;5074849;28;20667;-81
2021/08/21 10:47:41;;;;;;;5.72;3.70;;;;;;;24.85;72.75;94046.38;5028671;28;20234;-81
2021/08/21 10:50:31;;;;;;;6.85;4.30;;;;;;;25.06;75.40;94050.44;5074878;28;20252;-81
2021/08/21 10:52:58;;;;;;;7.97;4.65;;;;;;;25.20;69.71;94047.06;5073475;28;20936;-80
2021/08/21 10:55:28;;;;;;;4.38;3.28;;;;;;;25.25;65.81;94047.00;5074648;28;20202;-81
2021/08/21 10:57:56;;;;;;;6.38;3.60;;;;;;;25.08;61.17;94042.09;5074906;28;20199;-82
2021/08/21 11:00:47;;;;;;;9.38;3.30;;;;;;;24.64;65.18;94038.56;5074765;28;20198;-82
2021/08/21 11:03:17;;;;;;;7.13;3.70;;;;;;;24.98;65.06;94044.88;5074296;28;20437;-82
2021/08/21 11:05:51;;;;;;;5.18;3.50;;;;;;;25.16;62.92;94051.38;5075832;28;20199;-81
2021/08/21 11:08:18;;;;;;;6.28;3.60;;;;;;;25.23;59.27;94046.47;5080609;28;20588;-80
2021/08/21 11:10:45;;;;;;;5.90;3.40;;;;;;;25.33;60.95;94040.25;5080786;28;20230;-80
2021/08/21 11:13:13;;;;;;;6.38;3.28;;;;;;;25.61;61.42;94039.34;5075385;28;20194;-80
2021/08/21 11:15:40;;;;;;;6.20;3.17;;;;;;;25.67;65.11;94038.19;5074525;28;20202;-80
2021/08/21 11:18:21;;;;;;;7.13;3.33;;;;;;;25.76;57.81;94037.53;5074402;28;20206;-80
2021/08/21 11:20:48;;;;;;;5.82;3.13;;;;;;;25.78;60.23;94030.81;5074453;28;20206;-80
2021/08/21 11:23:19;;;;;;;8.88;3.42;;;;;;;26.01;62.57;94026.50;5074256;28;20206;-81
2021/08/21 11:25:46;;;;;;;6.25;3.53;;;;;;;25.84;66.43;94032.31;5073922;28;20681;-81
2021/08/21 11:28:20;;;;;;;6.38;3.15;;;;;;;26.45;61.27;94026.34;5073937;28;20223;-80
2021/08/21 11:31:08;;;;;;;6.47;3.13;;;;;;;26.20;56.25;94026.47;5074008;28;20229;-81